createdAt,value
2023-05-19T02:01:38.665Z,16.94
2023-05-19T02:04:22.720Z,17.01
2023-05-19T02:28:35.039Z,19.55
2023-05-19T02:31:07.702Z,19.90
2023-05-19T02:33:37.723Z,20.05
2023-05-19T02:36:11.313Z,20.38
2023-05-19T02:53:21.457Z,20.96
2023-05-19T02:55:51.033Z,21.21
2023-05-19T02:58:22.436Z,21.27
2023-05-19T03:00:52.694Z,21.76
2023-05-19T03:03:23.092Z,22.03
2023-05-19T03:05:55.494Z,22.41
2023-05-19T03:08:26.117Z,22.71
2023-05-19T03:10:57.233Z,22.60
2023-05-19T03:13:27.153Z,22.40
2023-05-19T03:16:00.078Z,22.37
2023-05-19T03:18:30.473Z,22.30
2023-05-19T03:21:01.103Z,22.12
2023-05-19T03:23:32.195Z,22.68
2023-05-19T03:26:02.676Z,23.10
2023-05-19T03:28:33.239Z,22.90
2023-05-19T03:31:03.729Z,23.55
2023-05-19T03:33:39.274Z,23.86
2023-05-19T03:36:10.157Z,24.27
2023-05-19T03:38:42.369Z,23.77
2023-05-19T03:41:12.276Z,23.65
2023-05-19T03:43:42.518Z,24.10
2023-05-19T03:46:12.796Z,24.05
2023-05-19T03:49:01.094Z,23.54
2023-05-19T03:51:49.068Z,23.84
2023-05-19T03:54:27.563Z,24.23
2023-05-19T03:56:57.969Z,24.63
2023-05-19T03:59:28.260Z,23.72
2023-05-19T04:01:59.411Z,24.24
2023-05-19T04:04:29.851Z,24.97
2023-05-19T04:07:00.038Z,24.44
2023-05-19T04:09:29.847Z,24.20
2023-05-19T04:12:00.024Z,24.88
2023-05-19T04:14:30.116Z,24.68
2023-05-19T04:17:00.478Z,24.09
2023-05-19T04:19:30.495Z,24.79
2023-05-19T04:22:00.578Z,24.63
2023-05-19T04:24:31.054Z,25.28
2023-05-19T04:27:06.132Z,24.79
2023-05-19T04:29:37.239Z,24.40
2023-05-19T04:32:08.300Z,24.50
2023-05-19T04:34:41.798Z,24.20
2023-05-19T04:37:11.939Z,24.44
2023-05-19T04:39:46.918Z,23.77
2023-05-19T04:42:20.879Z,24.20
2023-05-19T04:44:53.116Z,25.06
2023-05-19T04:47:29.250Z,24.38
2023-05-19T04:50:02.179Z,24.66
2023-05-19T04:52:32.359Z,24.55
2023-05-19T04:55:03.878Z,24.86
2023-05-19T04:57:34.151Z,25.01
2023-05-19T05:00:06.841Z,25.05
2023-05-19T05:02:44.453Z,25.21
2023-05-19T05:05:15.916Z,25.64
2023-05-19T05:07:45.861Z,24.86
2023-05-19T05:10:15.736Z,25.28
2023-05-19T05:12:46.430Z,25.36
2023-05-19T05:15:16.914Z,25.06
2023-05-19T05:17:49.988Z,25.22
2023-05-19T05:20:21.154Z,25.51
2023-05-19T05:22:51.714Z,25.90
2023-05-19T05:25:23.059Z,25.72
2023-05-19T05:27:53.849Z,25.22
2023-05-19T05:30:23.882Z,25.37
2023-05-19T05:32:55.110Z,25.28
2023-05-19T05:35:36.931Z,25.27
2023-05-19T05:38:08.511Z,25.40
2023-05-19T05:40:39.838Z,25.98
2023-05-19T05:43:11.149Z,25.48
2023-05-19T05:45:48.287Z,25.57
2023-05-19T05:48:19.387Z,26.15
2023-05-19T05:50:51.474Z,25.59
2023-05-19T05:53:28.274Z,24.91
2023-05-19T05:55:58.414Z,25.33
2023-05-19T05:58:39.093Z,26.00
2023-05-19T06:01:12.665Z,26.33
2023-05-19T06:03:47.808Z,25.29
2023-05-19T06:06:22.599Z,26.41
2023-05-19T06:08:54.018Z,26.73
2023-05-19T06:11:24.834Z,26.37
2023-05-19T06:13:56.664Z,27.07
2023-05-19T06:16:46.037Z,27.20
2023-05-19T06:19:17.994Z,26.36
2023-05-19T06:21:48.598Z,25.77
2023-05-19T06:24:18.356Z,26.72
2023-05-19T06:26:48.359Z,26.98
2023-05-19T06:29:19.692Z,26.21
2023-05-19T06:31:50.407Z,26.13
2023-05-19T06:34:20.452Z,27.22
2023-05-19T06:36:50.455Z,27.45
2023-05-19T06:39:22.124Z,27.40
2023-05-19T06:41:51.977Z,27.15
2023-05-19T06:44:48.169Z,27.97
2023-05-19T06:47:19.387Z,27.65
2023-05-19T06:49:56.942Z,28.08
2023-05-19T06:52:30.519Z,27.19
2023-05-19T06:55:00.506Z,27.74
2023-05-19T06:57:30.358Z,27.95
2023-05-19T07:00:00.605Z,27.94
2023-05-19T07:02:30.945Z,28.06
2023-05-19T07:05:00.998Z,27.88
2023-05-19T07:07:31.031Z,28.43
2023-05-19T07:10:01.657Z,28.03
2023-05-19T07:12:33.143Z,27.91
2023-05-19T07:15:03.862Z,27.50
2023-05-19T07:17:34.861Z,28.09
2023-05-19T07:20:07.917Z,27.50
2023-05-19T07:22:40.018Z,28.46
2023-05-19T07:25:10.919Z,28.63
2023-05-19T07:27:42.834Z,28.89
2023-05-19T07:30:13.156Z,28.34
2023-05-19T07:32:43.193Z,28.58
2023-05-19T07:35:13.089Z,27.91
2023-05-19T07:37:43.252Z,28.35
2023-05-19T07:40:13.140Z,28.10
2023-05-19T07:42:43.699Z,28.58
2023-05-19T07:45:13.954Z,28.07
2023-05-19T07:47:43.884Z,27.73
2023-05-19T07:50:13.955Z,26.96
2023-05-19T07:52:43.702Z,28.17
2023-05-19T07:55:14.996Z,28.53
2023-05-19T07:57:45.009Z,27.92
2023-05-19T08:00:15.379Z,28.29
2023-05-19T08:02:45.854Z,27.80
2023-05-19T08:05:16.347Z,28.07
2023-05-19T08:07:46.754Z,28.84
2023-05-19T08:10:17.514Z,27.89
2023-05-19T08:12:48.710Z,28.28
2023-05-19T08:15:20.356Z,28.77
2023-05-19T08:17:50.526Z,28.81
2023-05-19T08:20:20.278Z,28.59
2023-05-19T08:22:50.512Z,28.17
2023-05-19T08:25:21.134Z,28.94
2023-05-19T08:27:51.235Z,28.82
2023-05-19T08:30:21.414Z,29.29
2023-05-19T08:32:51.726Z,28.10
2023-05-19T08:35:22.343Z,28.77
2023-05-19T08:37:52.818Z,27.96
2023-05-19T08:40:23.832Z,27.59
2023-05-19T08:42:53.941Z,27.96
2023-05-19T08:45:23.838Z,28.48
2023-05-19T08:47:54.134Z,27.79
2023-05-19T08:50:31.875Z,28.27
2023-05-19T08:53:31.380Z,27.50
2023-05-19T08:56:19.946Z,27.84
2023-05-19T08:58:52.152Z,28.15
2023-05-19T09:01:24.512Z,27.59
2023-05-19T09:03:54.624Z,27.92
2023-05-19T09:06:24.836Z,28.08
2023-05-19T09:08:54.758Z,27.85
2023-05-19T09:11:24.516Z,27.42
2023-05-19T09:13:54.442Z,27.25
2023-05-19T09:16:25.183Z,28.26
2023-05-19T09:18:59.897Z,28.50
2023-05-19T09:21:33.634Z,28.34
2023-05-19T09:24:08.520Z,28.46
2023-05-19T09:26:43.281Z,27.96
2023-05-19T09:29:14.884Z,28.41
2023-05-19T09:31:52.819Z,28.04
2023-05-19T09:34:25.258Z,28.00
2023-05-19T09:36:56.016Z,28.17
2023-05-19T09:39:27.217Z,28.41
2023-05-19T09:42:00.368Z,27.79
2023-05-19T09:44:31.619Z,27.98
2023-05-19T09:47:01.631Z,28.33
2023-05-19T09:49:34.104Z,28.59
2023-05-19T09:52:07.253Z,28.12
2023-05-19T09:54:37.075Z,28.31
2023-05-19T09:57:09.295Z,27.93
2023-05-19T09:59:42.733Z,27.78
2023-05-19T10:02:21.583Z,28.13
2023-05-19T10:04:53.412Z,27.72
2023-05-19T10:07:25.609Z,27.56
2023-05-19T10:09:58.582Z,27.88
2023-05-19T10:12:29.393Z,27.19
2023-05-19T10:15:00.675Z,27.84
2023-05-19T10:17:30.568Z,27.88
2023-05-19T10:20:02.515Z,27.84
2023-05-19T10:22:34.333Z,27.68
2023-05-19T10:25:04.283Z,27.62
2023-05-19T10:27:38.199Z,28.14
2023-05-19T10:30:16.666Z,26.75
2023-05-19T10:32:53.950Z,27.40
2023-05-19T10:35:49.083Z,27.40
2023-05-19T10:38:26.874Z,27.64
2023-05-19T10:41:15.212Z,27.33
2023-05-19T10:44:16.035Z,27.08
2023-05-19T10:46:46.530Z,26.59
2023-05-19T10:49:25.657Z,26.86
2023-05-19T10:52:01.016Z,26.50
2023-05-19T10:54:56.146Z,26.53
2023-05-19T10:57:30.117Z,26.90
2023-05-19T11:00:02.599Z,26.82
2023-05-19T11:02:46.295Z,26.46
2023-05-19T11:05:19.634Z,27.01
2023-05-19T11:08:13.075Z,26.46
2023-05-19T11:10:47.799Z,26.87
2023-05-19T11:13:26.148Z,26.82
2023-05-19T11:15:58.921Z,26.48
2023-05-19T11:18:28.819Z,25.92
2023-05-19T11:21:05.828Z,26.20
2023-05-19T11:23:43.527Z,26.06
2023-05-19T11:26:15.302Z,26.08
2023-05-19T11:28:45.531Z,25.95
2023-05-19T11:31:16.049Z,25.93
2023-05-19T11:33:46.214Z,25.59
2023-05-19T11:36:18.217Z,25.84
2023-05-19T11:41:41.996Z,25.43
2023-05-19T11:44:14.841Z,25.70
2023-05-19T11:46:46.397Z,24.80
2023-05-19T11:49:18.677Z,24.80
2023-05-19T11:51:49.159Z,24.63
2023-05-19T11:54:20.697Z,24.66
2023-05-19T11:56:50.678Z,24.73
2023-05-19T11:59:32.255Z,24.73
2023-05-19T12:02:20.396Z,24.22
2023-05-19T12:04:51.189Z,24.40
2023-05-19T12:07:24.472Z,23.72
2023-05-19T12:09:55.166Z,24.02
2023-05-19T12:12:25.919Z,24.00
2023-05-19T12:14:56.274Z,24.09
2023-05-19T12:17:26.623Z,23.69
2023-05-19T12:19:58.515Z,23.15
2023-05-19T12:22:28.995Z,22.99
2023-05-19T12:24:59.316Z,22.66
2023-05-19T12:27:30.115Z,21.77
2023-05-19T12:30:00.295Z,21.51
2023-05-19T12:32:30.693Z,20.87
2023-05-19T12:35:01.704Z,21.17
2023-05-19T12:37:32.117Z,20.54
2023-05-19T12:40:03.299Z,20.27
2023-05-19T12:42:34.115Z,20.06
2023-05-19T12:45:07.314Z,20.00
2023-05-19T12:47:38.130Z,19.84
2023-05-19T12:50:10.704Z,19.67
2023-05-19T12:52:49.217Z,19.55
2023-05-19T12:55:22.296Z,19.03
2023-05-19T12:57:59.622Z,19.09
2023-05-19T13:00:30.988Z,18.82
2023-05-19T13:03:07.856Z,18.82
2023-05-19T13:05:45.106Z,18.51
2023-05-19T13:08:17.541Z,18.45
2023-05-19T13:10:49.361Z,18.29
2023-05-19T13:13:19.980Z,18.26
2023-05-19T13:15:50.611Z,18.18
2023-05-19T13:18:21.080Z,18.16
2023-05-19T13:20:52.837Z,17.87
2023-05-19T13:23:23.720Z,17.73
2023-05-19T13:25:54.356Z,17.73
2023-05-19T13:28:24.832Z,17.54
2023-05-19T13:30:56.506Z,17.57
2023-05-19T13:33:27.017Z,17.46
2023-05-19T13:35:58.363Z,17.25
2023-05-19T13:38:28.920Z,17.26
2023-05-19T13:40:58.996Z,17.14
2023-05-19T13:43:28.974Z,17.21
2023-05-19T13:45:59.586Z,17.18
2023-05-19T13:48:29.698Z,17.23
2023-05-19T13:50:59.719Z,16.92
2023-05-19T13:53:31.405Z,17.15
2023-05-19T13:56:03.397Z,17.01
2023-05-19T13:58:33.395Z,16.87
2023-05-19T14:01:03.237Z,16.88
2023-05-19T14:03:33.315Z,16.48
2023-05-19T14:06:03.479Z,16.64
2023-05-19T14:08:34.283Z,16.42
2023-05-19T14:11:04.837Z,16.47
2023-05-19T14:13:38.277Z,16.58
2023-05-19T14:16:11.603Z,16.69
2023-05-19T14:18:41.908Z,16.61
2023-05-19T14:21:12.758Z,16.75
2023-05-19T14:23:43.211Z,16.46
2023-05-19T14:26:13.214Z,16.51
2023-05-19T14:28:43.852Z,16.85
2023-05-19T14:31:15.346Z,16.60
2023-05-19T14:33:46.200Z,16.56
2023-05-19T14:36:16.273Z,16.57
2023-05-19T14:38:46.192Z,16.37
2023-05-19T14:41:16.365Z,16.86
2023-05-19T14:43:47.000Z,16.71
2023-05-19T14:46:18.050Z,16.63
2023-05-19T14:48:48.512Z,16.87
2023-05-19T14:51:18.582Z,17.09
